| time (UTC) | temp C | wind direction | speed KPH | gust KPH | rain 1hr cm | rain 24hr cm | rain mn cm | humidity % | barometer mb |
| 20260510202225 | 22 | 278 | 1.6 | 3.2 | 0.00 | 0.00 | 0.00 | 51 | 1013.2 |
| 20260510201723 | 22 | 317 | 9.7 | 17.7 | 0.00 | 0.00 | 0.00 | 51 | 1013.3 |
| 20260510201553 | 22 | 286 | 3.2 | 12.9 | 0.00 | 0.51 | 0.00 | 51 | 1013.5 |
| 20260510201219 | 22 | 246 | 3.2 | 3.2 | 0.00 | 0.00 | 0.00 | 52 | 1013.2 |
| 20260510200715 | 22 | 316 | 4.8 | 4.8 | 0.00 | 0.00 | 0.00 | 52 | 1013.3 |
| 20260510200517 | 22 | 308 | 4.8 | 16.1 | 0.00 | 0.51 | 0.00 | 51 | 1013.5 |
| 20260510200213 | 22 | 309 | 4.8 | 8.0 | 0.00 | 0.00 | 0.00 | 51 | 1013.3 |
| 20260510195710 | 22 | 293 | 6.4 | 9.7 | 0.00 | 0.00 | 0.00 | 53 | 1013.4 |
| 20260510195525 | 22 | 315 | 4.8 | 12.9 | 0.00 | 0.51 | 0.00 | 53 | 1013.6 |
| 20260510195207 | 22 | 275 | 9.7 | 12.9 | 0.00 | 0.00 | 0.00 | 54 | 1013.3 |
| 20260510194706 | 22 | 265 | 6.4 | 9.7 | 0.00 | 0.00 | 0.00 | 55 | 1013.3 |
| 20260510194517 | 22 | 324 | 4.8 | 11.3 | 0.00 | 0.51 | 0.00 | 54 | 1013.6 |
| 20260510194203 | 23 | 289 | 4.8 | 8.0 | 0.00 | 0.00 | 0.00 | 54 | 1013.3 |
| 20260510193658 | 22 | 272 | 6.4 | 8.0 | 0.00 | 0.00 | 0.00 | 53 | 1013.3 |
| 20260510193525 | 23 | 326 | 4.8 | 11.3 | 0.00 | 0.53 | 0.00 | 52 | 1013.6 |
| 20260510193153 | 23 | 357 | 4.8 | 8.0 | 0.00 | 0.00 | 0.00 | 52 | 1013.3 |
| 20260510192649 | 22 | 331 | 3.2 | 4.8 | 0.00 | 0.00 | 0.00 | 51 | 1013.2 |
| 20260510192517 | 23 | 314 | 4.8 | 14.5 | 0.00 | 0.53 | 0.00 | 51 | 1013.5 |
| 20260510192144 | 23 | 291 | 1.6 | 3.2 | 0.00 | 0.00 | 0.00 | 52 | 1013.2 |
| 20260510191641 | 22 | 263 | 1.6 | 1.6 | 0.00 | 0.00 | 0.00 | 52 | 1013.3 |
| 20260510191545 | 22 | 299 | 3.2 | 9.7 | 0.00 | 0.53 | 0.00 | 53 | 1013.6 |
| 20260510191138 | 22 | 334 | 6.4 | 11.3 | 0.00 | 0.00 | 0.00 | 53 | 1013.5 |
| 20260510190635 | 23 | 30 | 6.4 | 9.7 | 0.00 | 0.00 | 0.00 | 51 | 1013.4 |
| 20260510190533 | 23 | 305 | 6.4 | 12.9 | 0.00 | 0.53 | 0.00 | 50 | 1013.6 |
| 20260510190132 | 23 | 343 | 4.8 | 4.8 | 0.00 | 0.00 | 0.00 | 51 | 1013.2 |
| 20260510185628 | 23 | 329 | 17.7 | 20.9 | 0.00 | 0.00 | 0.00 | 49 | 1013.6 |
| 20260510185525 | 23 | 302 | 4.8 | 14.5 | 0.00 | 0.53 | 0.00 | 50 | 1013.6 |
| 20260510185127 | 23 | 301 | 4.8 | 9.7 | 0.00 | 0.00 | 0.00 | 50 | 1013.4 |
| 20260510184623 | 23 | 292 | 6.4 | 9.7 | 0.00 | 0.00 | 0.00 | 49 | 1013.6 |
| 20260510184613 | 23 | 295 | 8.0 | 22.5 | 0.00 | 0.53 | 0.00 | 51 | 1013.7 |
| 20260510184119 | 23 | 296 | 4.8 | 8.0 | 0.00 | 0.00 | 0.00 | 53 | 1013.4 |
| 20260510183615 | 23 | 307 | 4.8 | 9.7 | 0.00 | 0.00 | 0.00 | 55 | 1013.5 |
| 20260510183525 | 23 | 295 | 6.4 | 17.7 | 0.00 | 0.53 | 0.00 | 56 | 1013.7 |
| 20260510183109 | 23 | 337 | 3.2 | 3.2 | 0.00 | 0.00 | 0.00 | 56 | 1013.5 |
| 20260510182607 | 22 | 268 | 6.4 | 8.0 | 0.00 | 0.00 | 0.00 | 57 | 1013.4 |
| 20260510182533 | 22 | 258 | 4.8 | 12.9 | 0.00 | 0.56 | 0.00 | 58 | 1013.7 |
| 20260510182102 | 22 | 236 | 6.4 | 9.7 | 0.00 | 0.00 | 0.00 | 59 | 1013.4 |
| 20260510181600 | 22 | 253 | 14.5 | 16.1 | 0.00 | 0.00 | 0.00 | 58 | 1013.4 |
| 20260510181525 | 23 | 256 | 4.8 | 14.5 | 0.00 | 0.56 | 0.00 | 56 | 1013.8 |
| 20260510181056 | 23 | 299 | 4.8 | 4.8 | 0.00 | 0.00 | 0.00 | 55 | 1013.5 |
| 20260510180553 | 23 | 266 | 0.0 | 0.0 | 0.00 | 0.00 | 0.00 | 59 | 1013.5 |
| 20260510180517 | 22 | 252 | 3.2 | 9.7 | 0.00 | 0.71 | 0.00 | 60 | 1013.8 |
| 20260510180050 | 22 | 260 | 6.4 | 9.7 | 0.00 | 0.00 | 0.00 | 60 | 1013.6 |
| 20260510175545 | 22 | 241 | 1.6 | 1.6 | 0.00 | 0.00 | 0.00 | 61 | 1013.5 |
| 20260510175525 | 22 | 236 | 4.8 | 14.5 | 0.00 | 0.74 | 0.00 | 62 | 1013.7 |
| 20260510175041 | 22 | 233 | 0.0 | 0.0 | 0.00 | 0.00 | 0.00 | 62 | 1013.5 |
| 20260510174540 | 22 | 229 | 9.7 | 11.3 | 0.00 | 0.00 | 0.00 | 62 | 1013.4 |
| 20260510174517 | 22 | 241 | 4.8 | 11.3 | 0.00 | 0.76 | 0.00 | 62 | 1013.7 |
| 20260510174036 | 22 | 228 | 6.4 | 9.7 | 0.00 | 0.00 | 0.00 | 63 | 1013.5 |
| 20260510173531 | 22 | 108 | 1.6 | 3.2 | 0.00 | 0.00 | 0.00 | 61 | 1013.4 |
| 20260510173525 | 22 | 281 | 3.2 | 9.7 | 0.00 | 0.76 | 0.00 | 62 | 1013.8 |
| 20260510173029 | 22 | 256 | 4.8 | 8.0 | 0.00 | 0.00 | 0.00 | 64 | 1013.5 |
| 20260510172524 | 21 | 246 | 1.6 | 3.2 | 0.00 | 0.00 | 0.00 | 63 | 1013.4 |
| 20260510172517 | 22 | 248 | 4.8 | 17.7 | 0.00 | 0.76 | 0.00 | 63 | 1013.7 |
| 20260510172021 | 22 | 304 | 1.6 | 1.6 | 0.00 | 0.00 | 0.00 | 63 | 1013.5 |
| 20260510171525 | 22 | 258 | 1.6 | 8.0 | 0.00 | 0.76 | 0.00 | 65 | 1013.7 |
| 20260510171517 | 22 | 287 | 1.6 | 3.2 | 0.00 | 0.00 | 0.00 | 64 | 1013.4 |
| 20260510171015 | 22 | 270 | 0.0 | 1.6 | 0.00 | 0.00 | 0.00 | 65 | 1013.7 |
| 20260510170517 | 21 | 272 | 0.0 | 3.2 | 0.00 | 0.76 | 0.00 | 66 | 1013.9 |
| 20260510170511 | 22 | 272 | 0.0 | 0.0 | 0.00 | 0.00 | 0.00 | 66 | 1013.6 |
| 20260510170008 | 21 | 236 | 6.4 | 8.0 | 0.00 | 0.00 | 0.00 | 65 | 1013.8 |
| 20260510165545 | 21 | 286 | 1.6 | 3.2 | 0.00 | 0.76 | 0.00 | 66 | 1013.9 |
| 20260510165503 | 21 | 280 | 0.0 | 0.0 | 0.00 | 0.00 | 0.00 | 66 | 1013.7 |
| 20260510165000 | 21 | 299 | 4.8 | 4.8 | 0.00 | 0.00 | 0.00 | 66 | 1013.7 |
| 20260510164517 | 21 | 236 | 4.8 | 11.3 | 0.00 | 0.76 | 0.00 | 68 | 1014.0 |
| 20260510164457 | 20 | 227 | 8.0 | 9.7 | 0.00 | 0.00 | 0.00 | 68 | 1013.8 |
| 20260510163953 | 21 | 266 | 1.6 | 1.6 | 0.00 | 0.00 | 0.00 | 69 | 1013.6 |
| 20260510163525 | 20 | 243 | 3.2 | 9.7 | 0.00 | 0.76 | 0.00 | 71 | 1014.0 |
| 20260510163448 | 20 | 249 | 0.0 | 1.6 | 0.00 | 0.00 | 0.00 | 72 | 1013.7 |
| 20260510162944 | 20 | 232 | 9.7 | 11.3 | 0.00 | 0.00 | 0.00 | 69 | 1013.9 |
| 20260510162537 | 20 | 246 | 0.0 | 4.8 | 0.00 | 0.76 | 0.00 | 72 | 1014.2 |
| 20260510162441 | 20 | 266 | 0.0 | 0.0 | 0.00 | 0.00 | 0.00 | 72 | 1013.9 |
| 20260510161936 | 19 | 282 | 4.8 | 4.8 | 0.00 | 0.00 | 0.00 | 74 | 1013.8 |
| 20260510161605 | 20 | 274 | 1.6 | 8.0 | 0.00 | 0.76 | 0.00 | 73 | 1014.2 |
| 20260510161431 | 20 | 293 | 1.6 | 1.6 | 0.00 | 0.00 | 0.00 | 74 | 1014.0 |
| 20260510160924 | 19 | 296 | 3.2 | 3.2 | 0.00 | 0.00 | 0.00 | 73 | 1013.9 |
| 20260510160537 | 19 | 243 | 3.2 | 9.7 | 0.00 | 0.76 | 0.00 | 75 | 1014.2 |
| 20260510160420 | 19 | 220 | 4.8 | 9.7 | 0.00 | 0.00 | 0.00 | 77 | 1013.9 |
| 20260510155914 | 18 | 254 | 3.2 | 3.2 | 0.00 | 0.00 | 0.00 | 76 | 1013.9 |
| 20260510155545 | 18 | 264 | 1.6 | 8.0 | 0.00 | 0.76 | 0.00 | 78 | 1014.2 |
| 20260510155411 | 18 | 242 | 4.8 | 4.8 | 0.00 | 0.00 | 0.00 | 78 | 1013.9 |
| 20260510154907 | 18 | 272 | 0.0 | 0.0 | 0.00 | 0.00 | 0.00 | 79 | 1014.0 |
| 20260510154517 | 18 | 243 | 4.8 | 9.7 | 0.00 | 0.76 | 0.00 | 78 | 1014.4 |
| 20260510154403 | 17 | 238 | 8.0 | 9.7 | 0.00 | 0.00 | 0.00 | 77 | 1014.3 |
| 20260510153857 | 17 | 237 | 4.8 | 4.8 | 0.00 | 0.00 | 0.00 | 80 | 1014.2 |
| 20260510153525 | 17 | 261 | 0.0 | 1.6 | 0.00 | 0.76 | 0.00 | 82 | 1014.5 |
| 20260510153354 | 17 | 274 | 0.0 | 0.0 | 0.00 | 0.00 | 0.00 | 82 | 1014.2 |
| 20260510152850 | 17 | 275 | 0.0 | 1.6 | 0.00 | 0.00 | 0.00 | 82 | 1014.2 |
| 20260510152517 | 17 | 264 | 0.0 | 1.6 | 0.00 | 0.76 | 0.00 | 82 | 1014.4 |
| 20260510152348 | 17 | 259 | 0.0 | 1.6 | 0.00 | 0.00 | 0.00 | 82 | 1014.3 |
| 20260510151844 | 17 | 277 | 0.0 | 0.0 | 0.00 | 0.00 | 0.00 | 83 | 1013.9 |
| 20260510151533 | 16 | 269 | 0.0 | 3.2 | 0.00 | 0.76 | 0.00 | 83 | 1014.4 |
| 20260510151342 | 16 | 276 | 0.0 | 0.0 | 0.00 | 0.00 | 0.00 | 84 | 1014.1 |
| 20260510150838 | 16 | 277 | 0.0 | 0.0 | 0.00 | 0.00 | 0.00 | 85 | 1014.4 |
| 20260510150537 | 16 | 254 | 1.6 | 4.8 | 0.00 | 0.76 | 0.00 | 85 | 1014.7 |
| 20260510150333 | 16 | 277 | 1.6 | 3.2 | 0.00 | 0.00 | 0.00 | 84 | 1014.4 |
| 20260510145830 | 16 | 268 | 0.0 | 0.0 | 0.00 | 0.00 | 0.00 | 86 | 1014.4 |
| 20260510145525 | 15 | 256 | 1.6 | 4.8 | 0.00 | 0.76 | 0.00 | 86 | 1014.8 |
| 20260510145326 | 15 | 226 | 3.2 | 4.8 | 0.00 | 0.00 | 0.00 | 86 | 1014.5 |
| 20260510144823 | 15 | 279 | 0.0 | 0.0 | 0.00 | 0.00 | 0.00 | 86 | 1014.8 |
| 20260510144517 | 15 | 250 | 1.6 | 4.8 | 0.00 | 0.76 | 0.00 | 86 | 1014.6 |
| 20260510144320 | 15 | 253 | 3.2 | 3.2 | 0.00 | 0.00 | 0.00 | 87 | 1014.5 |
| 20260510143819 | 15 | 271 | 0.0 | 0.0 | 0.00 | 0.00 | 0.00 | 86 | 1014.5 |
| 20260510143545 | 15 | 252 | 1.6 | 4.8 | 0.00 | 0.76 | 0.00 | 87 | 1014.7 |
| 20260510143316 | 15 | 249 | 4.8 | 4.8 | 0.00 | 0.00 | 0.00 | 86 | 1014.6 |
| 20260510142813 | 15 | 283 | 0.0 | 0.0 | 0.00 | 0.00 | 0.00 | 87 | 1014.5 |
| 20260510142517 | 15 | 250 | 1.6 | 8.0 | 0.00 | 0.76 | 0.00 | 88 | 1014.6 |
| 20260510142310 | 15 | 237 | 4.8 | 4.8 | 0.00 | 0.00 | 0.00 | 88 | 1014.2 |
| 20260510141806 | 15 | 263 | 0.0 | 0.0 | 0.00 | 0.00 | 0.00 | 90 | 1014.6 |
| 20260510141526 | 14 | 268 | 0.0 | 3.2 | 0.00 | 0.76 | 0.00 | 90 | 1014.6 |
| 20260510141304 | 14 | 274 | 0.0 | 0.0 | 0.00 | 0.00 | 0.00 | 90 | 1014.3 |
| 20260510140801 | 14 | 258 | 1.6 | 1.6 | 0.00 | 0.00 | 0.00 | 91 | 1014.3 |
| 20260510140517 | 13 | 268 | 0.0 | 1.6 | 0.00 | 0.76 | 0.00 | 92 | 1014.6 |
| 20260510140256 | 13 | 277 | 0.0 | 0.0 | 0.00 | 0.00 | 0.00 | 92 | 1014.2 |
| 20260510135750 | 13 | 280 | 1.6 | 1.6 | 0.00 | 0.00 | 0.00 | 93 | 1014.4 |
| 20260510135525 | 13 | 254 | 1.6 | 4.8 | 0.00 | 0.76 | 0.00 | 94 | 1014.4 |
| 20260510135246 | 13 | 288 | 0.0 | 0.0 | 0.00 | 0.00 | 0.00 | 94 | 1014.3 |
| 20260510134744 | 13 | 240 | 1.6 | 3.2 | 0.00 | 0.00 | 0.00 | 95 | 1014.4 |
| 20260510134517 | 12 | 247 | 1.6 | 3.2 | 0.00 | 0.76 | 0.00 | 95 | 1014.5 |
| 20260510134241 | 12 | 273 | 1.6 | 1.6 | 0.00 | 0.00 | 0.00 | 95 | 1014.2 |
| 20260510133737 | 12 | 265 | 1.6 | 1.6 | 0.00 | 0.00 | 0.00 | 96 | 1014.4 |
| 20260510133526 | 12 | 253 | 1.6 | 3.2 | 0.00 | 0.76 | 0.00 | 97 | 1014.6 |
| 20260510133232 | 12 | 261 | 1.6 | 1.6 | 0.00 | 0.00 | 0.00 | 97 | 1014.3 |
| 20260510132728 | 12 | 277 | 0.0 | 0.0 | 0.00 | 0.00 | 0.00 | 97 | 1014.4 |
| 20260510132518 | 12 | 259 | 0.0 | 3.2 | 0.00 | 0.76 | 0.00 | 97 | 1014.5 |
| 20260510132226 | 12 | 272 | 0.0 | 0.0 | 0.00 | 0.00 | 0.00 | 97 | 1014.2 |
| 20260510131723 | 12 | 271 | 0.0 | 0.0 | 0.00 | 0.00 | 0.00 | 97 | 1014.2 |
| 20260510131526 | 12 | 0.0 | 0.0 | 0.00 | 0.76 | 0.00 | 98 | 1014.3 | |
| 20260510131221 | 12 | 254 | 0.0 | 0.0 | 0.00 | 0.00 | 0.00 | 98 | 1013.8 |
| 20260510130717 | 12 | 270 | 0.0 | 0.0 | 0.00 | 0.00 | 0.00 | 98 | 1014.1 |
| 20260510130553 | 12 | 0.0 | 0.0 | 0.00 | 0.76 | 0.00 | 98 | 1014.3 | |
| 20260510130215 | 12 | 271 | 0.0 | 0.0 | 0.00 | 0.00 | 0.00 | 98 | 1014.1 |
| 20260510125710 | 12 | 267 | 0.0 | 0.0 | 0.00 | 0.00 | 0.00 | 98 | 1014.1 |
| 20260510125605 | 12 | 0.0 | 0.0 | 0.00 | 0.76 | 0.00 | 98 | 1014.1 | |
| 20260510125207 | 12 | 270 | 0.0 | 0.0 | 0.00 | 0.00 | 0.00 | 98 | 1013.9 |
| 20260510124704 | 12 | 264 | 0.0 | 0.0 | 0.00 | 0.00 | 0.00 | 98 | 1013.9 |
| 20260510124533 | 12 | 0.0 | 0.0 | 0.00 | 0.76 | 0.00 | 98 | 1014.2 | |
| 20260510124201 | 12 | 257 | 0.0 | 0.0 | 0.00 | 0.00 | 0.00 | 98 | 1013.8 |
| 20260510123656 | 12 | 270 | 0.0 | 0.0 | 0.00 | 0.00 | 0.00 | 98 | 1014.0 |
| 20260510123546 | 11 | 0.0 | 0.0 | 0.00 | 0.76 | 0.00 | 98 | 1014.1 | |
| 20260510123152 | 11 | 276 | 0.0 | 0.0 | 0.00 | 0.00 | 0.00 | 99 | 1013.8 |
| 20260510122649 | 12 | 244 | 0.0 | 0.0 | 0.00 | 0.00 | 0.00 | 99 | 1013.6 |
| 20260510122553 | 12 | 0.0 | 0.0 | 0.00 | 0.76 | 0.00 | 99 | 1014.0 | |
| 20260510122145 | 12 | 266 | 0.0 | 0.0 | 0.00 | 0.00 | 0.00 | 99 | 1013.7 |
| 20260510121641 | 12 | 276 | 0.0 | 0.0 | 0.00 | 0.00 | 0.00 | 99 | 1013.5 |
| 20260510121526 | 12 | 0.0 | 0.0 | 0.00 | 0.76 | 0.00 | 99 | 1014.0 | |
| 20260510121139 | 11 | 281 | 0.0 | 0.0 | 0.00 | 0.00 | 0.00 | 99 | 1013.7 |
| 20260510120636 | 11 | 275 | 0.0 | 0.0 | 0.00 | 0.00 | 0.00 | 99 | 1013.5 |
| 20260510120533 | 11 | 0.0 | 0.0 | 0.00 | 0.76 | 0.00 | 99 | 1013.7 | |
| 20260510120132 | 11 | 274 | 0.0 | 0.0 | 0.00 | 0.00 | 0.00 | 99 | 1013.6 |
| 20260510115628 | 11 | 277 | 0.0 | 0.0 | 0.00 | 0.00 | 0.00 | 99 | 1013.3 |
| 20260510115526 | 11 | 0.0 | 0.0 | 0.00 | 0.76 | 0.00 | 99 | 1013.7 | |
| 20260510115127 | 11 | 279 | 0.0 | 0.0 | 0.00 | 0.00 | 0.00 | 99 | 1013.4 |
| 20260510114622 | 11 | 277 | 0.0 | 0.0 | 0.00 | 0.00 | 0.00 | 99 | 1013.4 |
| 20260510114533 | 11 | 0.0 | 0.0 | 0.00 | 0.76 | 0.00 | 99 | 1013.7 | |
| 20260510114118 | 11 | 275 | 0.0 | 0.0 | 0.00 | 0.00 | 0.00 | 99 | 1013.4 |
| 20260510113614 | 11 | 274 | 0.0 | 0.0 | 0.00 | 0.00 | 0.00 | 99 | 1013.4 |
| 20260510113526 | 11 | 0.0 | 0.0 | 0.00 | 0.76 | 0.00 | 99 | 1013.8 | |
| 20260510113111 | 11 | 220 | 0.0 | 0.0 | 0.00 | 0.00 | 0.00 | 99 | 1013.5 |
| 20260510112608 | 11 | 282 | 0.0 | 0.0 | 0.00 | 0.00 | 0.00 | 99 | 1013.4 |
| 20260510112533 | 11 | 0.0 | 0.0 | 0.00 | 0.76 | 0.00 | 99 | 1013.5 | |
| 20260510112104 | 11 | 272 | 0.0 | 0.0 | 0.00 | 0.00 | 0.00 | 99 | 1013.2 |
| 20260510111601 | 11 | 269 | 0.0 | 0.0 | 0.00 | 0.00 | 0.00 | 99 | 1013.1 |
| 20260510111526 | 11 | 0.0 | 0.0 | 0.00 | 0.76 | 0.00 | 99 | 1013.3 | |
| 20260510111056 | 11 | 271 | 0.0 | 0.0 | 0.00 | 0.00 | 0.00 | 99 | 1012.9 |
| 20260510110553 | 11 | 275 | 0.0 | 0.0 | 0.00 | 0.00 | 0.00 | 99 | 1013.1 |
| 20260510110518 | 11 | 0.0 | 0.0 | 0.00 | 0.76 | 0.00 | 99 | 1013.2 | |
| 20260510110049 | 11 | 277 | 0.0 | 0.0 | 0.00 | 0.00 | 0.00 | 99 | 1012.9 |
| 20260510105546 | 11 | 0.0 | 0.0 | 0.00 | 0.76 | 0.00 | 99 | 1013.1 | |
| 20260510105039 | 11 | 277 | 0.0 | 0.0 | 0.00 | 0.00 | 0.00 | 99 | 1012.8 |
| 20260510104536 | 11 | 277 | 0.0 | 0.0 | 0.00 | 0.00 | 0.00 | 99 | 1012.7 |
| 20260510104518 | 11 | 0.0 | 0.0 | 0.00 | 0.76 | 0.00 | 99 | 1013.0 | |
| 20260510104033 | 11 | 262 | 0.0 | 0.0 | 0.00 | 0.00 | 0.00 | 99 | 1012.8 |
| 20260510103530 | 11 | 269 | 0.0 | 0.0 | 0.00 | 0.00 | 0.00 | 99 | 1012.9 |
| 20260510103526 | 11 | 0.0 | 0.0 | 0.00 | 0.76 | 0.00 | 99 | 1013.1 | |
| 20260510103026 | 11 | 277 | 0.0 | 0.0 | 0.00 | 0.00 | 0.00 | 99 | 1013.0 |
| 20260510102538 | 11 | 0.0 | 0.0 | 0.00 | 0.76 | 0.00 | 99 | 1013.1 | |
| 20260510102522 | 11 | 276 | 0.0 | 0.0 | 0.00 | 0.00 | 0.00 | 99 | 1013.0 |
| 20260510102019 | 11 | 271 | 0.0 | 0.0 | 0.00 | 0.00 | 0.00 | 99 | 1012.8 |
| 20260510101526 | 11 | 0.0 | 0.0 | 0.00 | 0.76 | 0.00 | 99 | 1013.1 | |
| 20260510101516 | 11 | 273 | 0.0 | 0.0 | 0.00 | 0.00 | 0.00 | 99 | 1012.8 |
| 20260510101015 | 11 | 273 | 0.0 | 0.0 | 0.00 | 0.00 | 0.00 | 99 | 1013.0 |
| 20260510100538 | 11 | 0.0 | 0.0 | 0.00 | 0.76 | 0.00 | 99 | 1013.2 | |
| 20260510100510 | 11 | 275 | 0.0 | 0.0 | 0.00 | 0.00 | 0.00 | 99 | 1013.0 |
| 20260510100007 | 11 | 272 | 0.0 | 0.0 | 0.00 | 0.00 | 0.00 | 99 | 1012.8 |
| 20260510095526 | 11 | 0.0 | 0.0 | 0.00 | 0.76 | 0.00 | 99 | 1013.2 | |
| 20260510095503 | 11 | 274 | 0.0 | 0.0 | 0.00 | 0.00 | 0.00 | 99 | 1012.9 |
| 20260510095003 | 11 | 245 | 0.0 | 0.0 | 0.00 | 0.00 | 0.00 | 99 | 1012.8 |
| 20260510094518 | 11 | 0.0 | 0.0 | 0.00 | 0.76 | 0.00 | 99 | 1013.1 | |
| 20260510094457 | 11 | 275 | 0.0 | 0.0 | 0.00 | 0.00 | 0.00 | 99 | 1012.9 |
| 20260510093953 | 11 | 273 | 0.0 | 0.0 | 0.00 | 0.00 | 0.00 | 99 | 1012.6 |
| 20260510093526 | 11 | 0.0 | 0.0 | 0.00 | 0.76 | 0.00 | 99 | 1013.0 | |
| 20260510093449 | 11 | 270 | 0.0 | 0.0 | 0.00 | 0.00 | 0.00 | 99 | 1012.7 |
| 20260510092945 | 11 | 276 | 0.0 | 0.0 | 0.00 | 0.00 | 0.00 | 99 | 1012.8 |
| 20260510092518 | 11 | 0.0 | 0.0 | 0.00 | 0.76 | 0.00 | 99 | 1013.2 | |
| 20260510092443 | 11 | 277 | 0.0 | 0.0 | 0.00 | 0.00 | 0.00 | 99 | 1012.9 |
| 20260510091942 | 11 | 268 | 0.0 | 0.0 | 0.00 | 0.00 | 0.00 | 99 | 1013.0 |
| 20260510091526 | 11 | 0.0 | 0.0 | 0.00 | 0.76 | 0.00 | 99 | 1013.3 | |
| 20260510091440 | 11 | 272 | 0.0 | 0.0 | 0.00 | 0.00 | 0.00 | 99 | 1013.0 |
| 20260510090936 | 11 | 272 | 0.0 | 0.0 | 0.00 | 0.00 | 0.00 | 99 | 1013.0 |
| 20260510090518 | 11 | 0.0 | 0.0 | 0.00 | 0.76 | 0.00 | 99 | 1013.5 | |
| 20260510090433 | 11 | 272 | 0.0 | 0.0 | 0.00 | 0.00 | 0.00 | 99 | 1013.2 |
| 20260510085928 | 10 | 273 | 0.0 | 0.0 | 0.00 | 0.00 | 0.00 | 98 | 1013.3 |
| 20260510085526 | 11 | 0.0 | 0.0 | 0.00 | 0.76 | 0.00 | 98 | 1013.5 | |
| 20260510085424 | 10 | 273 | 0.0 | 0.0 | 0.00 | 0.00 | 0.00 | 98 | 1013.1 |
| 20260510084919 | 10 | 273 | 0.0 | 0.0 | 0.00 | 0.00 | 0.00 | 98 | 1013.1 |
| 20260510084518 | 11 | 0.0 | 0.0 | 0.00 | 0.76 | 0.00 | 98 | 1013.5 | |
| 20260510084417 | 11 | 276 | 0.0 | 0.0 | 0.00 | 0.00 | 0.00 | 98 | 1013.3 |
| 20260510083913 | 11 | 281 | 0.0 | 0.0 | 0.00 | 0.00 | 0.00 | 98 | 1013.2 |
| 20260510083526 | 11 | 303 | 0.0 | 3.2 | 0.00 | 0.76 | 0.00 | 98 | 1013.6 |
| 20260510083410 | 11 | 275 | 0.0 | 0.0 | 0.00 | 0.00 | 0.00 | 98 | 1013.2 |
| 20260510082905 | 11 | 271 | 0.0 | 0.0 | 0.00 | 0.00 | 0.00 | 98 | 1013.2 |
| 20260510082518 | 11 | 302 | 1.6 | 4.8 | 0.00 | 0.76 | 0.00 | 98 | 1013.5 |
| 20260510082403 | 11 | 268 | 0.0 | 0.0 | 0.00 | 0.00 | 0.00 | 98 | 1013.3 |
| 20260510081902 | 11 | 271 | 0.0 | 0.0 | 0.00 | 0.00 | 0.00 | 98 | 1013.2 |
| 20260510081526 | 11 | 320 | 1.6 | 4.8 | 0.00 | 0.76 | 0.00 | 98 | 1013.4 |
| 20260510081358 | 11 | 335 | 1.6 | 1.6 | 0.00 | 0.00 | 0.00 | 98 | 1013.0 |
| 20260510080855 | 11 | 278 | 0.0 | 0.0 | 0.00 | 0.00 | 0.00 | 98 | 1013.0 |
| 20260510080518 | 11 | 319 | 0.0 | 3.2 | 0.00 | 0.76 | 0.00 | 98 | 1013.1 |
| 20260510080348 | 11 | 331 | 1.6 | 3.2 | 0.00 | 0.00 | 0.00 | 98 | 1013.0 |
| 20260510075846 | 11 | 274 | 0.0 | 0.0 | 0.00 | 0.00 | 0.00 | 98 | 1012.8 |
| 20260510075526 | 11 | 331 | 1.6 | 4.8 | 0.00 | 0.76 | 0.00 | 98 | 1012.9 |
| 20260510075344 | 11 | 321 | 3.2 | 3.2 | 0.00 | 0.00 | 0.00 | 98 | 1012.7 |
| 20260510074840 | 11 | 274 | 0.0 | 0.0 | 0.00 | 0.00 | 0.00 | 98 | 1012.1 |
| 20260510074518 | 11 | 0.0 | 0.0 | 0.00 | 0.76 | 0.00 | 98 | 1012.5 | |
| 20260510074337 | 11 | 274 | 0.0 | 0.0 | 0.00 | 0.00 | 0.00 | 98 | 1012.1 |
| 20260510073834 | 11 | 274 | 0.0 | 0.0 | 0.00 | 0.00 | 0.00 | 98 | 1012.3 |
| 20260510073526 | 11 | 0.0 | 0.0 | 0.00 | 0.76 | 0.00 | 98 | 1012.5 | |
| 20260510073329 | 11 | 276 | 0.0 | 0.0 | 0.00 | 0.00 | 0.00 | 98 | 1012.2 |
| 20260510072825 | 11 | 277 | 0.0 | 0.0 | 0.00 | 0.00 | 0.00 | 98 | 1012.2 |
| 20260510072518 | 11 | 0.0 | 0.0 | 0.00 | 0.76 | 0.00 | 98 | 1012.5 | |
| 20260510072323 | 11 | 274 | 0.0 | 0.0 | 0.00 | 0.00 | 0.00 | 98 | 1012.2 |
| 20260510071819 | 11 | 274 | 0.0 | 0.0 | 0.00 | 0.00 | 0.00 | 98 | 1012.2 |
| 20260510071526 | 11 | 0.0 | 0.0 | 0.00 | 0.76 | 0.00 | 98 | 1012.5 | |
| 20260510071315 | 11 | 276 | 0.0 | 0.0 | 0.00 | 0.00 | 0.00 | 98 | 1012.3 |
| 20260510070814 | 11 | 278 | 0.0 | 0.0 | 0.00 | 0.00 | 0.00 | 98 | 1012.4 |
| 20260510070518 | 11 | 0.0 | 0.0 | 0.00 | 0.76 | 0.00 | 98 | 1012.6 | |
| 20260510070305 | 11 | 276 | 0.0 | 0.0 | 0.00 | 0.00 | 0.00 | 98 | 1012.4 |
| 20260510065805 | 10 | 274 | 0.0 | 0.0 | 0.00 | 0.00 | 0.00 | 98 | 1012.5 |
| 20260510065526 | 10 | 0.0 | 0.0 | 0.00 | 0.76 | 0.00 | 98 | 1012.7 | |
| 20260510065306 | 10 | 274 | 0.0 | 0.0 | 0.00 | 0.00 | 0.00 | 98 | 1012.5 |
| 20260510064758 | 10 | 272 | 0.0 | 0.0 | 0.00 | 0.00 | 0.00 | 98 | 1012.3 |
| 20260510064558 | 10 | 0.0 | 0.0 | 0.00 | 0.76 | 0.00 | 98 | 1012.7 | |
| 20260510064257 | 10 | 279 | 0.0 | 0.0 | 0.00 | 0.00 | 0.00 | 98 | 1012.4 |
| 20260510063752 | 10 | 274 | 0.0 | 0.0 | 0.00 | 0.00 | 0.00 | 98 | 1012.5 |
| 20260510063526 | 10 | 0.0 | 0.0 | 0.00 | 0.76 | 0.00 | 98 | 1012.7 | |
| 20260510063248 | 10 | 272 | 0.0 | 0.0 | 0.00 | 0.00 | 0.00 | 98 | 1012.5 |
| 20260510062745 | 10 | 280 | 0.0 | 0.0 | 0.00 | 0.00 | 0.00 | 98 | 1012.6 |
| 20260510062538 | 10 | 0.0 | 0.0 | 0.00 | 0.76 | 0.00 | 98 | 1012.7 | |
| 20260510062241 | 10 | 285 | 0.0 | 0.0 | 0.00 | 0.00 | 0.00 | 98 | 1012.4 |
| 20260510061736 | 10 | 278 | 0.0 | 0.0 | 0.00 | 0.00 | 0.00 | 98 | 1012.4 |
| 20260510061526 | 10 | 0.0 | 0.0 | 0.00 | 0.76 | 0.00 | 98 | 1012.5 | |
| 20260510061234 | 10 | 279 | 0.0 | 0.0 | 0.00 | 0.00 | 0.00 | 98 | 1012.3 |
| 20260510060730 | 10 | 278 | 0.0 | 0.0 | 0.00 | 0.00 | 0.00 | 98 | 1012.1 |
| 20260510060613 | 10 | 0.0 | 0.0 | 0.00 | 0.76 | 0.00 | 98 | 1012.5 | |
| 20260510060227 | 10 | 276 | 0.0 | 0.0 | 0.00 | 0.00 | 0.00 | 98 | 1012.3 |
| 20260510055723 | 10 | 279 | 0.0 | 0.0 | 0.00 | 0.00 | 0.00 | 98 | 1012.1 |
| 20260510055526 | 10 | 0.0 | 0.0 | 0.00 | 0.76 | 0.00 | 98 | 1012.3 | |
| 20260510055222 | 10 | 277 | 0.0 | 0.0 | 0.00 | 0.00 | 0.00 | 98 | 1011.9 |
| 20260510054722 | 10 | 274 | 0.0 | 0.0 | 0.00 | 0.00 | 0.00 | 98 | 1012.2 |
| 20260510054533 | 10 | 0.0 | 0.0 | 0.00 | 0.76 | 0.00 | 98 | 1012.4 | |
| 20260510054218 | 10 | 274 | 0.0 | 0.0 | 0.00 | 0.00 | 0.00 | 98 | 1012.1 |
| 20260510053717 | 10 | 274 | 0.0 | 0.0 | 0.00 | 0.00 | 0.00 | 98 | 1012.1 |
| 20260510053526 | 10 | 0.0 | 0.0 | 0.00 | 0.76 | 0.00 | 98 | 1012.3 | |
| 20260510053214 | 10 | 274 | 0.0 | 0.0 | 0.00 | 0.00 | 0.00 | 98 | 1012.1 |
| 20260510052709 | 10 | 272 | 0.0 | 0.0 | 0.00 | 0.00 | 0.00 | 98 | 1012.1 |
| 20260510052533 | 10 | 0.0 | 0.0 | 0.00 | 0.76 | 0.00 | 98 | 1012.4 | |
| 20260510052206 | 10 | 272 | 0.0 | 0.0 | 0.00 | 0.00 | 0.00 | 98 | 1012.2 |
| 20260510051701 | 10 | 276 | 0.0 | 0.0 | 0.00 | 0.00 | 0.00 | 98 | 1012.2 |
| 20260510051526 | 10 | 0.0 | 0.0 | 0.00 | 0.76 | 0.00 | 98 | 1012.5 | |
| 20260510051158 | 10 | 272 | 0.0 | 0.0 | 0.00 | 0.00 | 0.00 | 98 | 1012.2 |
| 20260510050655 | 10 | 273 | 0.0 | 0.0 | 0.00 | 0.00 | 0.00 | 98 | 1012.2 |
| 20260510050532 | 10 | 0.0 | 0.0 | 0.00 | 0.76 | 0.00 | 98 | 1012.7 | |
| 20260510050153 | 10 | 272 | 0.0 | 0.0 | 0.00 | 0.00 | 0.00 | 98 | 1012.5 |
| 20260510045649 | 10 | 275 | 0.0 | 0.0 | 0.00 | 0.00 | 0.00 | 98 | 1012.4 |
| 20260510045546 | 10 | 0.0 | 0.0 | 0.00 | 0.76 | 0.00 | 98 | 1012.6 | |
| 20260510045146 | 10 | 275 | 0.0 | 0.0 | 0.00 | 0.00 | 0.00 | 98 | 1012.4 |
| 20260510044642 | 10 | 273 | 0.0 | 0.0 | 0.00 | 0.00 | 0.00 | 98 | 1012.4 |
| 20260510044532 | 10 | 0.0 | 0.0 | 0.00 | 0.76 | 0.00 | 98 | 1012.6 | |
| 20260510044140 | 10 | 275 | 0.0 | 0.0 | 0.00 | 0.00 | 0.00 | 98 | 1012.3 |
| 20260510043635 | 10 | 271 | 0.0 | 0.0 | 0.00 | 0.00 | 0.00 | 98 | 1012.5 |
| 20260510043532 | 10 | 0.0 | 0.0 | 0.00 | 0.76 | 0.00 | 98 | 1012.6 | |
| 20260510043132 | 10 | 278 | 0.0 | 0.0 | 0.00 | 0.00 | 0.00 | 98 | 1012.2 |
| 20260510042630 | 10 | 278 | 0.0 | 0.0 | 0.00 | 0.00 | 0.00 | 98 | 1012.4 |
| 20260510042532 | 10 | 0.0 | 0.0 | 0.00 | 0.76 | 0.00 | 98 | 1012.6 | |
| 20260510042125 | 10 | 271 | 0.0 | 0.0 | 0.00 | 0.00 | 0.00 | 98 | 1012.3 |
| 20260510041623 | 10 | 276 | 0.0 | 0.0 | 0.00 | 0.00 | 0.00 | 98 | 1012.3 |
| 20260510041526 | 10 | 0.0 | 0.0 | 0.00 | 0.76 | 0.00 | 98 | 1012.5 | |
| 20260510041120 | 10 | 272 | 0.0 | 0.0 | 0.00 | 0.00 | 0.00 | 98 | 1012.3 |
| 20260510040617 | 11 | 273 | 0.0 | 0.0 | 0.00 | 0.00 | 0.00 | 98 | 1012.2 |
| 20260510040538 | 11 | 284 | 0.0 | 1.6 | 0.00 | 0.76 | 0.00 | 98 | 1012.6 |
| 20260510040114 | 11 | 272 | 0.0 | 0.0 | 0.00 | 0.76 | 0.76 | 98 | 1012.5 |
| 20260510035609 | 10 | 274 | 0.0 | 0.0 | 0.00 | 0.76 | 0.76 | 98 | 1012.3 |
| 20260510035527 | 10 | 0.0 | 0.0 | 0.00 | 0.76 | 0.76 | 98 | 1012.5 | |
| 20260510035104 | 10 | 275 | 0.0 | 0.0 | 0.00 | 0.76 | 0.76 | 98 | 1012.3 |
| 20260510034602 | 10 | 282 | 0.0 | 0.0 | 0.00 | 0.76 | 0.76 | 98 | 1012.3 |
| 20260510034518 | 10 | 0.0 | 0.0 | 0.00 | 0.76 | 0.76 | 98 | 1012.4 | |
| 20260510034059 | 10 | 278 | 0.0 | 0.0 | 0.00 | 0.76 | 0.76 | 97 | 1012.1 |
| 20260510033555 | 10 | 276 | 0.0 | 0.0 | 0.00 | 0.76 | 0.76 | 98 | 1012.1 |
| 20260510033527 | 10 | 0.0 | 0.0 | 0.00 | 0.76 | 0.76 | 97 | 1012.4 | |
| 20260510033053 | 10 | 276 | 0.0 | 0.0 | 0.00 | 0.76 | 0.76 | 97 | 1012.0 |
| 20260510032549 | 10 | 273 | 0.0 | 0.0 | 0.00 | 0.76 | 0.76 | 97 | 1012.2 |
| 20260510032518 | 10 | 0.0 | 0.0 | 0.00 | 0.76 | 0.76 | 97 | 1012.2 | |
| 20260510032044 | 10 | 276 | 0.0 | 0.0 | 0.00 | 0.76 | 0.76 | 97 | 1011.8 |
| 20260510031539 | 10 | 272 | 0.0 | 0.0 | 0.00 | 0.76 | 0.76 | 97 | 1012.0 |
| 20260510031526 | 10 | 0.0 | 0.0 | 0.00 | 0.76 | 0.76 | 97 | 1012.3 | |
| 20260510031035 | 10 | 271 | 0.0 | 0.0 | 0.00 | 0.76 | 0.76 | 97 | 1011.8 |
| 20260510030531 | 10 | 276 | 0.0 | 0.0 | 0.00 | 0.76 | 0.76 | 97 | 1012.0 |
| 20260510030519 | 10 | 0.0 | 0.0 | 0.00 | 0.76 | 0.76 | 97 | 1012.2 | |
| 20260510030029 | 10 | 275 | 0.0 | 0.0 | 0.00 | 0.76 | 0.76 | 97 | 1011.9 |
| 20260510025527 | 10 | 0.0 | 0.0 | 0.00 | 0.76 | 0.76 | 97 | 1012.3 | |
| 20260510025023 | 10 | 277 | 0.0 | 0.0 | 0.00 | 0.76 | 0.76 | 97 | 1012.0 |
| 20260510024520 | 10 | 277 | 0.0 | 0.0 | 0.00 | 0.76 | 0.76 | 97 | 1012.1 |
| 20260510024016 | 10 | 280 | 0.0 | 0.0 | 0.00 | 0.76 | 0.76 | 97 | 1012.2 |
| 20260510023526 | 10 | 0.0 | 0.0 | 0.00 | 0.76 | 0.76 | 97 | 1012.5 | |
| 20260510023512 | 10 | 284 | 0.0 | 0.0 | 0.00 | 0.76 | 0.76 | 97 | 1012.1 |
| 20260510023010 | 10 | 277 | 0.0 | 0.0 | 0.00 | 0.76 | 0.76 | 97 | 1012.2 |
| 20260510022518 | 10 | 0.0 | 0.0 | 0.00 | 0.76 | 0.76 | 97 | 1012.5 | |
| 20260510022508 | 10 | 274 | 0.0 | 0.0 | 0.00 | 0.76 | 0.76 | 97 | 1012.1 |
| 20260510022008 | 10 | 274 | 0.0 | 0.0 | 0.00 | 0.76 | 0.76 | 97 | 1012.3 |
| 20260510021547 | 10 | 0.0 | 0.0 | 0.00 | 0.76 | 0.76 | 97 | 1012.3 | |
| 20260510021505 | 10 | 279 | 0.0 | 0.0 | 0.00 | 0.76 | 0.76 | 97 | 1012.2 |
| 20260510021003 | 10 | 276 | 0.0 | 0.0 | 0.00 | 0.76 | 0.76 | 97 | 1012.2 |
| 20260510020519 | 10 | 0.0 | 0.0 | 0.00 | 0.76 | 0.76 | 97 | 1012.3 | |
| 20260510020457 | 10 | 274 | 0.0 | 0.0 | 0.00 | 0.76 | 0.76 | 97 | 1012.0 |
| 20260510015953 | 10 | 277 | 0.0 | 0.0 | 0.00 | 0.76 | 0.76 | 97 | 1012.1 |
| 20260510015527 | 10 | 0.0 | 0.0 | 0.00 | 0.76 | 0.76 | 97 | 1012.4 | |
| 20260510015448 | 10 | 284 | 0.0 | 0.0 | 0.00 | 0.76 | 0.76 | 97 | 1012.0 |
| 20260510014943 | 10 | 275 | 0.0 | 0.0 | 0.00 | 0.76 | 0.76 | 97 | 1011.9 |
| 20260510014519 | 11 | 0.0 | 0.0 | 0.00 | 0.76 | 0.76 | 97 | 1012.2 | |
| 20260510014442 | 11 | 278 | 0.0 | 0.0 | 0.00 | 0.76 | 0.76 | 97 | 1012.0 |
| 20260510013938 | 11 | 277 | 0.0 | 0.0 | 0.00 | 0.76 | 0.76 | 97 | 1012.1 |
| 20260510013546 | 11 | 0.0 | 0.0 | 0.00 | 0.76 | 0.76 | 97 | 1012.3 | |
| 20260510013432 | 11 | 276 | 0.0 | 0.0 | 0.00 | 0.76 | 0.76 | 97 | 1012.0 |
| 20260510012929 | 11 | 277 | 0.0 | 0.0 | 0.00 | 0.76 | 0.76 | 96 | 1012.0 |
| 20260510012519 | 11 | 0.0 | 0.0 | 0.00 | 0.76 | 0.76 | 96 | 1012.2 | |
| 20260510012424 | 11 | 271 | 0.0 | 0.0 | 0.00 | 0.76 | 0.76 | 96 | 1012.0 |
| 20260510011919 | 11 | 272 | 0.0 | 0.0 | 0.00 | 0.76 | 0.76 | 96 | 1011.9 |
| 20260510011527 | 11 | 0.0 | 0.0 | 0.00 | 0.76 | 0.76 | 96 | 1012.0 | |
| 20260510011414 | 11 | 276 | 0.0 | 0.0 | 0.00 | 0.76 | 0.76 | 96 | 1011.8 |
| 20260510010910 | 11 | 276 | 0.0 | 0.0 | 0.00 | 0.76 | 0.76 | 96 | 1011.8 |
| 20260510010519 | 11 | 0.0 | 0.0 | 0.00 | 0.76 | 0.76 | 96 | 1011.7 | |
| 20260510010408 | 11 | 275 | 0.0 | 0.0 | 0.00 | 0.76 | 0.76 | 96 | 1011.4 |
| 20260510005904 | 11 | 275 | 0.0 | 0.0 | 0.00 | 0.76 | 0.76 | 96 | 1011.4 |
| 20260510005527 | 11 | 0.0 | 0.0 | 0.00 | 0.76 | 0.76 | 96 | 1011.8 | |
| 20260510005400 | 11 | 274 | 0.0 | 0.0 | 0.00 | 0.76 | 0.76 | 96 | 1011.6 |
| 20260510004858 | 11 | 276 | 0.0 | 0.0 | 0.00 | 0.76 | 0.76 | 96 | 1011.5 |
| 20260510004519 | 11 | 0.0 | 0.0 | 0.00 | 0.76 | 0.76 | 96 | 1011.7 | |
| 20260510004355 | 11 | 276 | 0.0 | 0.0 | 0.00 | 0.76 | 0.76 | 96 | 1011.5 |
| 20260510003853 | 11 | 278 | 0.0 | 0.0 | 0.00 | 0.76 | 0.76 | 96 | 1011.3 |
| 20260510003527 | 11 | 0.0 | 0.0 | 0.00 | 0.76 | 0.76 | 96 | 1011.7 | |
| 20260510003350 | 11 | 274 | 0.0 | 0.0 | 0.00 | 0.76 | 0.76 | 96 | 1011.4 |
| 20260510002848 | 11 | 275 | 0.0 | 0.0 | 0.00 | 0.76 | 0.76 | 96 | 1011.5 |
| 20260510002539 | 12 | 0.0 | 0.0 | 0.00 | 0.76 | 0.76 | 96 | 1011.7 | |
| 20260510002346 | 12 | 277 | 0.0 | 0.0 | 0.00 | 0.76 | 0.76 | 96 | 1011.5 |
| 20260510001842 | 12 | 274 | 0.0 | 0.0 | 0.00 | 0.76 | 0.76 | 95 | 1011.5 |
| 20260510001527 | 12 | 0.0 | 0.0 | 0.00 | 0.76 | 0.76 | 95 | 1011.7 | |
| 20260510001341 | 12 | 274 | 0.0 | 0.0 | 0.00 | 0.76 | 0.76 | 95 | 1011.4 |
| 20260510000836 | 12 | 274 | 0.0 | 0.0 | 0.00 | 0.76 | 0.76 | 95 | 1011.5 |
| 20260510000519 | 12 | 0.0 | 0.0 | 0.00 | 0.76 | 0.76 | 95 | 1011.6 | |
| 20260510000334 | 12 | 278 | 0.0 | 0.0 | 0.00 | 0.76 | 0.76 | 95 | 1011.5 |
| 20260509235830 | 12 | 277 | 0.0 | 0.0 | 0.00 | 0.76 | 0.76 | 95 | 1011.2 |
| 20260509235552 | 12 | 0.0 | 0.0 | 0.00 | 0.76 | 0.76 | 95 | 1011.5 | |
| 20260509235327 | 12 | 275 | 0.0 | 0.0 | 0.00 | 0.76 | 0.76 | 95 | 1011.2 |
| 20260509234823 | 12 | 278 | 0.0 | 0.0 | 0.00 | 0.76 | 0.76 | 95 | 1011.3 |
| 20260509234519 | 12 | 0.0 | 0.0 | 0.00 | 0.76 | 0.76 | 95 | 1011.4 | |
| 20260509234320 | 12 | 280 | 0.0 | 0.0 | 0.00 | 0.76 | 0.76 | 95 | 1011.2 |
| 20260509233818 | 12 | 277 | 0.0 | 0.0 | 0.00 | 0.76 | 0.76 | 95 | 1011.1 |
| 20260509233526 | 12 | 0.0 | 0.0 | 0.00 | 0.76 | 0.76 | 95 | 1011.4 | |
| 20260509233316 | 12 | 280 | 0.0 | 0.0 | 0.00 | 0.76 | 0.76 | 95 | 1011.0 |
| 20260509232811 | 13 | 265 | 0.0 | 0.0 | 0.00 | 0.76 | 0.76 | 95 | 1011.1 |
| 20260509232519 | 13 | 269 | 0.0 | 1.6 | 0.00 | 0.76 | 0.76 | 95 | 1011.3 |
| 20260509232309 | 13 | 276 | 0.0 | 0.0 | 0.00 | 0.76 | 0.76 | 95 | 1011.1 |
| 20260509231805 | 13 | 275 | 0.0 | 0.0 | 0.00 | 0.76 | 0.76 | 95 | 1010.9 |
| 20260509231527 | 13 | 280 | 0.0 | 1.6 | 0.00 | 0.76 | 0.76 | 95 | 1011.2 |
| 20260509231302 | 13 | 273 | 0.0 | 0.0 | 0.00 | 0.76 | 0.76 | 95 | 1010.9 |
| 20260509230800 | 13 | 247 | 1.6 | 1.6 | 0.00 | 0.76 | 0.76 | 95 | 1011.1 |
| 20260509230518 | 13 | 271 | 0.0 | 1.6 | 0.00 | 0.76 | 0.76 | 95 | 1011.6 |
| 20260509230256 | 13 | 273 | 0.0 | 0.0 | 0.00 | 0.76 | 0.76 | 95 | 1011.3 |
| 20260509225751 | 13 | 273 | 0.0 | 0.0 | 0.00 | 0.76 | 0.76 | 95 | 1011.4 |
| 20260509225607 | 13 | 0.0 | 0.0 | 0.00 | 0.76 | 0.76 | 95 | 1011.9 | |
| 20260509225248 | 13 | 271 | 0.0 | 0.0 | 0.00 | 0.76 | 0.76 | 95 | 1011.6 |
| 20260509224743 | 13 | 298 | 0.0 | 0.0 | 0.00 | 0.76 | 0.76 | 95 | 1011.6 |
| 20260509224519 | 13 | 255 | 1.6 | 4.8 | 0.05 | 0.76 | 0.76 | 95 | 1011.9 |
| 20260509224241 | 13 | 264 | 1.6 | 3.2 | 0.00 | 0.76 | 0.76 | 95 | 1011.5 |
| 20260509223738 | 13 | 259 | 0.0 | 1.6 | 0.00 | 0.76 | 0.76 | 95 | 1011.5 |
| 20260509223527 | 13 | 266 | 0.0 | 1.6 | 0.13 | 0.76 | 0.76 | 95 | 1011.7 |
| 20260509223235 | 13 | 274 | 0.0 | 0.0 | 0.00 | 0.76 | 0.76 | 95 | 1011.5 |
| 20260509222731 | 13 | 264 | 0.0 | 0.0 | 0.00 | 0.76 | 0.76 | 95 | 1011.3 |
| 20260509222519 | 12 | 0.0 | 0.0 | 0.23 | 0.76 | 0.76 | 95 | 1011.7 | |
| 20260509222226 | 12 | 274 | 0.0 | 0.0 | 0.00 | 0.76 | 0.76 | 95 | 1011.4 |
| 20260509221722 | 12 | 273 | 0.0 | 0.0 | 0.00 | 0.76 | 0.76 | 95 | 1011.4 |
| 20260509221527 | 12 | 0.0 | 0.0 | 0.30 | 0.76 | 0.76 | 95 | 1011.7 | |
| 20260509221219 | 12 | 272 | 0.0 | 0.0 | 0.00 | 0.76 | 0.76 | 95 | 1011.5 |
| 20260509220715 | 12 | 271 | 0.0 | 0.0 | 0.00 | 0.76 | 0.76 | 95 | 1011.6 |
| 20260509220519 | 12 | 0.0 | 0.0 | 0.33 | 0.76 | 0.76 | 95 | 1012.1 | |
| 20260509220212 | 12 | 273 | 0.0 | 0.0 | 0.18 | 0.76 | 0.76 | 95 | 1011.9 |
| 20260509215707 | 12 | 275 | 0.0 | 0.0 | 0.18 | 0.76 | 0.76 | 95 | 1011.9 |
| 20260509215527 | 12 | 0.0 | 0.0 | 0.41 | 0.76 | 0.76 | 95 | 1012.1 | |
| 20260509215204 | 12 | 281 | 0.0 | 0.0 | 0.30 | 0.74 | 0.74 | 95 | 1011.8 |
| 20260509214701 | 12 | 270 | 0.0 | 0.0 | 0.61 | 0.74 | 0.74 | 94 | 1011.6 |
| 20260509214532 | 12 | 0.0 | 0.0 | 0.38 | 0.71 | 0.71 | 94 | 1012.1 | |
| 20260509214158 | 12 | 280 | 0.0 | 0.0 | 0.61 | 0.69 | 0.69 | 94 | 1011.9 |
| 20260509213655 | 12 | 288 | 0.0 | 0.0 | 0.71 | 0.66 | 0.66 | 94 | 1012.0 |
| 20260509213527 | 12 | 0.0 | 0.0 | 0.36 | 0.64 | 0.64 | 94 | 1012.0 | |
| 20260509213150 | 12 | 279 | 0.0 | 0.0 | 0.48 | 0.58 | 0.58 | 94 | 1011.8 |
| 20260509212648 | 12 | 284 | 0.0 | 0.0 | 0.48 | 0.53 | 0.53 | 93 | 1012.0 |
| 20260509212532 | 12 | 0.0 | 0.0 | 0.28 | 0.53 | 0.53 | 93 | 1012.1 | |
| 20260509212145 | 12 | 273 | 0.0 | 0.0 | 0.43 | 0.51 | 0.51 | 93 | 1011.8 |
| 20260509211641 | 12 | 279 | 0.0 | 0.0 | 0.30 | 0.48 | 0.48 | 93 | 1011.8 |
| 20260509211547 | 12 | 0.0 | 0.0 | 0.20 | 0.46 | 0.46 | 93 | 1012.1 | |
| 20260509211138 | 12 | 274 | 0.0 | 0.0 | 0.18 | 0.43 | 0.43 | 93 | 1011.9 |
| 20260509210635 | 12 | 288 | 1.6 | 1.6 | 0.48 | 0.43 | 0.43 | 93 | 1011.7 |
| 20260509210532 | 12 | 0.0 | 0.0 | 0.18 | 0.43 | 0.43 | 92 | 1011.9 | |
| 20260509210132 | 13 | 274 | 0.0 | 0.0 | 0.48 | 0.41 | 0.41 | 92 | 1011.7 |
| 20260509205627 | 13 | 267 | 1.6 | 1.6 | 0.18 | 0.36 | 0.36 | 92 | 1011.8 |
| 20260509205527 | 13 | 264 | 0.0 | 1.6 | 0.10 | 0.36 | 0.36 | 91 | 1011.9 |
| 20260509205121 | 13 | 291 | 0.0 | 0.0 | 0.13 | 0.33 | 0.33 | 91 | 1011.8 |
| 20260509204617 | 12 | 282 | 0.0 | 0.0 | 0.30 | 0.33 | 0.33 | 90 | 1011.7 |
| 20260509204532 | 13 | 0.0 | 0.0 | 0.08 | 0.33 | 0.33 | 89 | 1012.2 | |
| 20260509204108 | 12 | 273 | 0.0 | 0.0 | 0.30 | 0.33 | 0.33 | 89 | 1012.1 |
| 20260509203604 | 13 | 279 | 0.0 | 0.0 | 0.18 | 0.30 | 0.30 | 88 | 1012.1 |
| 20260509203527 | 13 | 0.0 | 0.0 | 0.05 | 0.28 | 0.28 | 88 | 1012.3 | |
| 20260509203103 | 13 | 279 | 0.0 | 0.0 | 0.13 | 0.28 | 0.28 | 88 | 1012.0 |
| 20260509202603 | 12 | 276 | 0.0 | 0.0 | 0.13 | 0.28 | 0.28 | 87 | 1012.1 |
| 20260509202532 | 13 | 280 | 1.6 | 1.6 | 0.03 | 0.25 | 0.25 | 88 | 1012.3 |